createdAt,value
2023-02-24T00:02:05.695Z,98376.19
2023-02-24T00:04:42.686Z,98387.06
2023-02-24T00:07:16.885Z,98389.22
2023-02-24T00:09:44.926Z,98388.34
2023-02-24T00:12:16.267Z,98382.97
2023-02-24T00:14:46.066Z,98376.56
2023-02-24T00:17:14.519Z,98378.75
2023-02-24T00:19:42.284Z,98374.25
2023-02-24T00:22:10.287Z,98376.69
2023-02-24T00:24:37.928Z,98374.97
2023-02-24T00:27:07.799Z,98377.47
2023-02-24T00:29:40.485Z,98372.00
2023-02-24T00:32:12.646Z,98380.00
2023-02-24T00:34:41.457Z,98370.34
2023-02-24T00:37:09.431Z,98377.09
2023-02-24T00:39:41.110Z,98367.66
2023-02-24T00:42:11.729Z,98364.41
2023-02-24T00:44:47.189Z,98373.91
2023-02-24T00:47:20.947Z,98363.06
2023-02-24T00:49:50.038Z,98366.97
2023-02-24T00:52:21.121Z,98366.16
2023-02-24T00:54:50.140Z,98366.72
2023-02-24T00:57:20.463Z,98364.00
2023-02-24T00:59:47.939Z,98359.22
2023-02-24T01:02:16.253Z,98362.28
2023-02-24T01:04:46.069Z,98355.03
2023-02-24T01:07:15.945Z,98352.22
2023-02-24T01:09:44.189Z,98347.44
2023-02-24T01:12:32.419Z,98346.63
2023-02-24T01:15:05.090Z,98344.38
2023-02-24T01:17:37.530Z,98342.03
2023-02-24T01:20:18.365Z,98345.25
2023-02-24T01:22:50.966Z,98338.13
2023-02-24T01:25:20.450Z,98345.44
2023-02-24T01:27:48.207Z,98340.44
2023-02-24T01:30:16.125Z,98337.50
2023-02-24T01:32:46.465Z,98334.91
2023-02-24T01:35:14.619Z,98324.41
2023-02-24T01:37:43.045Z,98323.31
2023-02-24T01:40:20.883Z,98328.88
2023-02-24T01:42:49.349Z,98329.88
2023-02-24T01:45:25.088Z,98324.56
2023-02-24T01:48:02.630Z,98321.56
2023-02-24T01:50:32.983Z,98326.25
2023-02-24T01:53:05.903Z,98312.09
2023-02-24T01:55:49.915Z,98310.97
2023-02-24T01:58:27.106Z,98309.63
2023-02-24T02:00:57.789Z,98308.78
2023-02-24T02:03:37.301Z,98304.63
2023-02-24T02:06:11.406Z,98304.06
2023-02-24T02:08:43.668Z,98304.34
2023-02-24T02:11:20.371Z,98298.19
2023-02-24T02:13:51.701Z,98307.09
2023-02-24T02:16:58.453Z,98309.78
2023-02-24T02:20:22.265Z,98302.84
2023-02-24T02:23:13.259Z,98303.16
2023-02-24T02:26:13.806Z,98299.84
2023-02-24T02:29:26.589Z,98301.81
2023-02-24T02:32:40.717Z,98293.47
2023-02-24T02:35:49.791Z,98292.59
2023-02-24T02:38:43.138Z,98286.19
2023-02-24T02:41:36.316Z,98297.00
2023-02-24T02:44:44.839Z,98290.06
2023-02-24T02:47:54.493Z,98294.53
2023-02-24T02:50:53.076Z,98286.78
2023-02-24T02:53:31.392Z,98282.00
2023-02-24T02:56:09.701Z,98272.25
2023-02-24T02:58:48.327Z,98278.91
2023-02-24T03:01:22.347Z,98275.81
2023-02-24T03:03:58.883Z,98262.66
2023-02-24T03:06:53.919Z,98261.22
2023-02-24T03:09:32.741Z,98252.28
2023-02-24T03:12:18.786Z,98256.97
2023-02-24T03:15:00.216Z,98253.00
2023-02-24T03:17:41.154Z,98255.81
2023-02-24T03:20:24.545Z,98255.63
2023-02-24T03:23:18.620Z,98249.81
2023-02-24T03:26:07.758Z,98236.75
2023-02-24T03:28:50.920Z,98240.41
2023-02-24T03:31:37.838Z,98233.50
2023-02-24T03:34:20.295Z,98235.19
2023-02-24T03:36:48.479Z,98231.84
2023-02-24T03:39:17.025Z,98236.84
2023-02-24T03:42:11.832Z,98241.06
2023-02-24T03:44:39.662Z,98245.78
2023-02-24T03:47:09.625Z,98236.34
2023-02-24T03:49:38.519Z,98232.16
2023-02-24T03:53:04.043Z,98234.09
2023-02-24T03:56:01.013Z,98239.41
2023-02-24T03:59:15.071Z,98235.22
2023-02-24T04:01:58.312Z,98236.03
2023-02-24T04:04:50.382Z,98230.78
2023-02-24T04:08:04.885Z,98235.78
2023-02-24T04:10:57.336Z,98235.25
2023-02-24T04:13:47.239Z,98235.78
2023-02-24T04:16:29.826Z,98231.31
2023-02-24T04:19:08.390Z,98233.00
2023-02-24T04:21:40.215Z,98233.84
2023-02-24T04:24:15.873Z,98227.13
2023-02-24T04:26:48.203Z,98224.63
2023-02-24T04:29:24.119Z,98212.97
2023-02-24T04:32:02.360Z,98217.38
2023-02-24T04:34:32.557Z,98211.81
2023-02-24T04:37:31.761Z,98216.56
2023-02-24T04:39:59.660Z,98222.16
2023-02-24T04:42:28.736Z,98211.78
2023-02-24T04:44:58.553Z,98219.91
2023-02-24T04:47:28.791Z,98219.06
2023-02-24T04:49:57.302Z,98214.34
2023-02-24T04:52:24.599Z,98210.19
2023-02-24T04:54:52.062Z,98209.03
2023-02-24T04:57:19.286Z,98196.22
2023-02-24T04:59:47.067Z,98200.13
2023-02-24T05:02:17.715Z,98194.00
2023-02-24T05:04:49.699Z,98196.22
2023-02-24T05:07:16.998Z,98192.28
2023-02-24T05:09:46.992Z,98198.66
2023-02-24T05:12:14.139Z,98196.22
2023-02-24T05:14:41.263Z,98187.03
2023-02-24T05:17:08.476Z,98190.00
2023-02-24T05:19:54.481Z,98180.84
2023-02-24T05:22:22.912Z,98172.81
2023-02-24T05:24:50.167Z,98183.97
2023-02-24T05:27:17.517Z,98168.91
2023-02-24T05:29:44.926Z,98167.50
2023-02-24T05:32:12.143Z,98166.41
2023-02-24T05:34:39.368Z,98163.84
2023-02-24T05:37:10.579Z,98151.63
2023-02-24T05:39:38.219Z,98153.28
2023-02-24T05:42:06.888Z,98151.38
2023-02-24T05:44:35.781Z,98149.69
2023-02-24T05:47:05.353Z,98144.34
2023-02-24T05:49:35.245Z,98146.91
2023-02-24T05:52:08.830Z,98141.06
2023-02-24T05:54:43.974Z,98133.84
2023-02-24T05:57:19.037Z,98136.06
2023-02-24T05:59:50.378Z,98133.28
2023-02-24T06:02:27.462Z,98136.63
2023-02-24T06:04:55.586Z,98129.09
2023-02-24T06:07:34.870Z,98135.22
2023-02-24T06:10:04.868Z,98129.41
2023-02-24T06:12:36.034Z,98134.13
2023-02-24T06:15:07.382Z,98127.16
2023-02-24T06:17:36.076Z,98128.25
2023-02-24T06:20:13.942Z,98124.38
2023-02-24T06:22:44.586Z,98120.75
2023-02-24T06:25:12.030Z,98126.03
2023-02-24T06:27:39.165Z,98120.19
2023-02-24T06:30:10.250Z,98124.34
2023-02-24T06:32:37.603Z,98119.59
2023-02-24T06:35:08.746Z,98126.84
2023-02-24T06:37:36.198Z,98118.47
2023-02-24T06:40:09.344Z,98136.00
2023-02-24T06:42:39.281Z,98113.72
2023-02-24T06:45:08.329Z,98118.19
2023-02-24T06:47:35.504Z,98118.72
2023-02-24T06:50:02.703Z,98116.53
2023-02-24T06:52:30.835Z,98118.72
2023-02-24T06:54:58.098Z,98117.50
2023-02-24T06:57:25.333Z,98120.09
2023-02-24T06:59:52.549Z,98116.47
2023-02-24T07:02:19.868Z,98118.72
2023-02-24T07:04:47.599Z,98116.78
2023-02-24T07:07:14.878Z,98116.53
2023-02-24T07:09:44.036Z,98118.22
2023-02-24T07:12:12.663Z,98110.72
2023-02-24T07:14:40.593Z,98108.78
2023-02-24T07:17:08.850Z,98105.97
2023-02-24T07:19:36.778Z,98108.47
2023-02-24T07:22:04.731Z,98100.16
2023-02-24T07:24:39.134Z,98101.53
2023-02-24T07:27:21.800Z,98096.50
2023-02-24T07:29:53.612Z,98094.03
2023-02-24T07:32:23.025Z,98089.84
2023-02-24T07:34:50.473Z,98095.09
2023-02-24T07:37:20.129Z,98098.16
2023-02-24T07:39:47.395Z,98092.63
2023-02-24T07:42:14.968Z,98091.47
2023-02-24T07:44:46.655Z,98092.91
2023-02-24T07:47:39.246Z,98088.13
2023-02-24T07:50:14.421Z,98090.41
2023-02-24T07:52:41.727Z,98089.25
2023-02-24T07:55:09.847Z,98096.78
2023-02-24T07:57:37.564Z,98088.69
2023-02-24T08:00:33.689Z,98094.50
2023-02-24T08:03:01.417Z,98084.50
2023-02-24T08:05:30.433Z,98079.19
2023-02-24T08:07:59.053Z,98088.16
2023-02-24T08:10:26.418Z,98083.97
2023-02-24T08:12:56.832Z,98083.69
2023-02-24T08:15:34.102Z,98084.78
2023-02-24T08:18:02.162Z,98076.47
2023-02-24T08:20:52.397Z,98080.38
2023-02-24T08:23:20.115Z,98074.50
2023-02-24T08:25:47.275Z,98074.78
2023-02-24T08:28:14.563Z,98079.50
2023-02-24T08:30:47.754Z,98074.50
2023-02-24T08:33:23.001Z,98077.31
2023-02-24T08:36:02.710Z,98060.59
2023-02-24T08:38:44.692Z,98065.03
2023-02-24T08:41:21.096Z,98065.03
2023-02-24T08:43:49.710Z,98061.38
2023-02-24T08:46:26.090Z,98056.41
2023-02-24T08:49:03.026Z,98056.41
2023-02-24T08:51:37.058Z,98056.91
2023-02-24T08:54:15.941Z,98054.66
2023-02-24T08:56:55.957Z,98054.63
2023-02-24T08:59:38.028Z,98042.63
2023-02-24T09:02:18.732Z,98042.19
2023-02-24T09:05:07.452Z,98044.44
2023-02-24T09:07:42.308Z,98040.09
2023-02-24T09:10:18.643Z,98032.59
2023-02-24T09:12:49.027Z,98034.97
2023-02-24T09:15:16.438Z,98026.81
2023-02-24T09:17:46.121Z,98032.88
2023-02-24T09:20:41.568Z,98021.25
2023-02-24T09:23:19.969Z,98022.78
2023-02-24T09:25:54.177Z,98018.84
2023-02-24T09:28:29.181Z,98016.16
2023-02-24T09:31:04.864Z,98017.38
2023-02-24T09:33:41.898Z,98017.16
2023-02-24T09:36:30.025Z,98014.50
2023-02-24T09:39:00.988Z,98009.66
2023-02-24T09:41:56.420Z,98005.97
2023-02-24T09:44:38.766Z,98003.66
2023-02-24T09:47:41.437Z,97998.00
2023-02-24T09:51:02.108Z,97991.44
2023-02-24T09:53:49.335Z,97982.88
2023-02-24T09:56:45.663Z,97992.25
2023-02-24T09:59:26.310Z,97987.03
2023-02-24T10:03:42.216Z,97981.53
2023-02-24T10:06:35.360Z,97978.31
2023-02-24T10:09:24.565Z,97979.09
2023-02-24T10:12:07.276Z,97982.13
2023-02-24T10:15:20.651Z,97977.50
2023-02-24T10:18:30.039Z,97983.25
2023-02-24T10:21:49.451Z,97986.13
2023-02-24T10:25:01.356Z,97974.78
2023-02-24T10:27:53.176Z,97966.59
2023-02-24T10:30:43.649Z,97967.09
2023-02-24T10:33:39.018Z,97968.56
2023-02-24T10:36:12.529Z,97962.13
2023-02-24T10:38:45.579Z,97954.31
2023-02-24T10:41:17.428Z,97963.50
2023-02-24T10:43:57.025Z,97960.84
2023-02-24T10:46:41.500Z,97954.50
2023-02-24T10:49:16.807Z,97961.13
2023-02-24T10:51:53.078Z,97955.66
2023-02-24T10:54:33.859Z,97952.59
2023-02-24T10:57:18.298Z,97952.63
2023-02-24T11:00:18.930Z,97948.22
2023-02-24T11:03:06.945Z,97935.16
2023-02-24T11:06:05.275Z,97927.06
2023-02-24T11:08:39.635Z,97935.34
2023-02-24T11:11:54.910Z,97932.25
2023-02-24T11:14:40.899Z,97914.81
2023-02-24T11:17:26.947Z,97915.09
2023-02-24T11:20:19.352Z,97909.47
2023-02-24T11:22:52.347Z,97909.75
2023-02-24T11:25:48.266Z,97899.63
2023-02-24T11:29:15.380Z,97891.44
2023-02-24T11:32:24.575Z,97892.16
2023-02-24T11:35:12.616Z,97891.47
2023-02-24T11:37:48.110Z,97887.09
2023-02-24T11:40:29.488Z,97883.22
2023-02-24T11:43:08.453Z,97879.63
2023-02-24T11:45:47.468Z,97871.88
2023-02-24T11:48:32.146Z,97864.03
2023-02-24T11:51:10.670Z,97863.72
2023-02-24T11:53:52.888Z,97852.34
2023-02-24T11:56:55.911Z,97850.59
2023-02-24T11:59:49.717Z,97846.00
2023-02-24T12:03:13.156Z,97832.75
2023-02-24T12:05:56.413Z,97821.59
2023-02-24T12:08:38.746Z,97813.81
2023-02-24T12:11:21.143Z,97809.63
2023-02-24T12:14:18.379Z,97793.69
2023-02-24T12:17:18.003Z,97792.72
2023-02-24T12:20:16.652Z,97780.38
2023-02-24T12:23:03.558Z,97791.31
2023-02-24T12:25:53.851Z,97790.56
2023-02-24T12:29:10.733Z,97782.41
2023-02-24T12:31:57.327Z,97779.00
2023-02-24T12:35:19.798Z,97769.09
2023-02-24T12:38:46.180Z,97770.28
2023-02-24T12:41:59.129Z,97759.03
2023-02-24T12:44:53.565Z,97751.97
2023-02-24T12:48:06.356Z,97731.63
2023-02-24T12:51:43.692Z,97744.16
2023-02-24T12:54:29.444Z,97741.84
2023-02-24T12:57:25.263Z,97742.97
2023-02-24T12:59:57.697Z,97730.09
2023-02-24T13:03:00.257Z,97737.16
2023-02-24T13:05:51.648Z,97730.50
2023-02-24T13:08:53.364Z,97730.66
2023-02-24T13:12:10.297Z,97732.34
2023-02-24T13:14:41.038Z,97725.84
2023-02-24T13:17:11.298Z,97723.91
2023-02-24T13:19:43.401Z,97715.03
2023-02-24T13:22:13.671Z,97707.06
2023-02-24T13:24:58.438Z,97696.66
2023-02-24T13:27:54.041Z,97698.00
2023-02-24T13:30:41.480Z,97699.25
2023-02-24T13:33:17.760Z,97689.59
2023-02-24T13:35:53.537Z,97674.16
2023-02-24T13:38:41.573Z,97681.13
2023-02-24T13:41:23.209Z,97677.06
2023-02-24T13:44:21.588Z,97674.34
2023-02-24T13:47:42.160Z,97669.69
2023-02-24T13:50:25.403Z,97664.50
2023-02-24T13:54:01.117Z,97661.13
2023-02-24T13:57:02.744Z,97654.38
2023-02-24T14:00:12.856Z,97652.50
2023-02-24T14:02:44.221Z,97639.19
2023-02-24T14:05:40.538Z,97640.81
2023-02-24T14:08:08.082Z,97632.81
2023-02-24T14:10:38.814Z,97625.97
2023-02-24T14:13:22.270Z,97623.72
2023-02-24T14:15:49.818Z,97633.91
2023-02-24T14:18:26.504Z,97611.06
2023-02-24T14:20:57.611Z,97605.56
2023-02-24T14:23:27.496Z,97617.69
2023-02-24T14:26:05.090Z,97620.88
2023-02-24T14:28:37.896Z,97609.06
2023-02-24T14:31:16.827Z,97605.44
2023-02-24T14:33:45.805Z,97612.28
2023-02-24T14:36:26.460Z,97617.88
2023-02-24T14:39:25.381Z,97605.66
2023-02-24T14:42:15.797Z,97603.13
2023-02-24T14:45:01.935Z,97605.75
2023-02-24T14:47:29.471Z,97600.94
2023-02-24T14:50:02.611Z,97582.44
2023-02-24T14:53:15.388Z,97577.09
2023-02-24T14:55:51.061Z,97583.13
2023-02-24T14:58:42.445Z,97585.00
2023-02-24T15:01:27.098Z,97585.06
2023-02-24T15:04:13.874Z,97586.09
2023-02-24T15:06:44.053Z,97578.44
2023-02-24T15:09:23.633Z,97571.19
2023-02-24T15:11:56.183Z,97566.38
2023-02-24T15:14:31.521Z,97571.50
2023-02-24T15:17:09.755Z,97555.94
2023-02-24T15:19:47.178Z,97554.81
2023-02-24T15:22:33.517Z,97557.31
2023-02-24T15:25:16.098Z,97539.38
2023-02-24T15:28:03.734Z,97537.50
2023-02-24T15:30:40.828Z,97539.34
2023-02-24T15:33:23.541Z,97533.75
2023-02-24T15:35:56.705Z,97535.69
2023-02-24T15:38:30.977Z,97542.25
2023-02-24T15:41:03.402Z,97538.53
2023-02-24T15:43:56.345Z,97532.16
2023-02-24T15:46:33.851Z,97528.03
2023-02-24T15:49:03.354Z,97524.50
2023-02-24T15:51:45.473Z,97518.19
2023-02-24T15:54:29.574Z,97518.84
2023-02-24T15:57:00.728Z,97514.66
2023-02-24T15:59:29.492Z,97508.91
2023-02-24T16:01:57.910Z,97514.47
2023-02-24T16:04:26.935Z,97510.44
2023-02-24T16:06:57.954Z,97518.94
2023-02-24T16:09:41.057Z,97514.16
2023-02-24T16:12:21.720Z,97519.69
2023-02-24T16:14:50.569Z,97507.38
2023-02-24T16:17:42.747Z,97507.44
2023-02-24T16:20:31.245Z,97504.88
2023-02-24T16:23:01.950Z,97497.28
2023-02-24T16:25:43.148Z,97502.78
2023-02-24T16:28:18.162Z,97501.69
2023-02-24T16:30:46.738Z,97509.34
2023-02-24T16:33:17.813Z,97508.25
2023-02-24T16:35:46.026Z,97510.28
2023-02-24T16:38:17.205Z,97509.88
2023-02-24T16:40:49.013Z,97510.69
2023-02-24T16:43:16.818Z,97510.38
2023-02-24T16:45:46.123Z,97509.59
2023-02-24T16:48:27.758Z,97509.00
2023-02-24T16:50:55.569Z,97511.66
2023-02-24T16:53:24.327Z,97517.97
2023-02-24T16:55:51.681Z,97514.75
2023-02-24T16:58:19.951Z,97508.94
2023-02-24T17:00:52.334Z,97514.25
2023-02-24T17:03:28.616Z,97512.31
2023-02-24T17:05:57.826Z,97502.09
2023-02-24T17:08:26.985Z,97496.28
2023-02-24T17:10:56.044Z,97492.66
2023-02-24T17:13:23.518Z,97501.84
2023-02-24T17:15:55.213Z,97489.19
2023-02-24T17:18:24.734Z,97486.91
2023-02-24T17:20:53.184Z,97492.94
2023-02-24T17:23:20.787Z,97505.91
2023-02-24T17:25:55.351Z,97517.38
2023-02-24T17:28:23.438Z,97525.13
2023-02-24T17:30:51.416Z,97519.81
2023-02-24T17:33:18.825Z,97514.03
2023-02-24T17:35:47.827Z,97512.94
2023-02-24T17:38:21.522Z,97516.47
2023-02-24T17:40:48.840Z,97517.28
2023-02-24T17:43:16.330Z,97531.44
2023-02-24T17:45:48.206Z,97535.53
2023-02-24T17:48:16.360Z,97524.09
2023-02-24T17:50:48.590Z,97528.63
2023-02-24T17:53:16.146Z,97520.84
2023-02-24T17:56:01.069Z,97519.22
2023-02-24T17:58:29.787Z,97508.75
2023-02-24T18:00:57.326Z,97513.97
2023-02-24T18:03:25.078Z,97509.75
2023-02-24T18:06:12.976Z,97512.03
2023-02-24T18:08:41.219Z,97511.63
2023-02-24T18:11:15.011Z,97507.97
2023-02-24T18:13:42.385Z,97507.59
2023-02-24T18:16:16.340Z,97510.72
2023-02-24T18:18:43.858Z,97513.41
2023-02-24T18:21:11.286Z,97506.09
2023-02-24T18:23:40.239Z,97496.13
2023-02-24T18:26:12.108Z,97493.66
2023-02-24T18:28:39.552Z,97494.78
2023-02-24T18:31:20.508Z,97496.13
2023-02-24T18:33:49.417Z,97498.22
2023-02-24T18:36:18.101Z,97497.31
2023-02-24T18:38:45.717Z,97503.59
2023-02-24T18:41:19.531Z,97496.19
2023-02-24T18:43:54.328Z,97494.81
2023-02-24T18:46:23.292Z,97488.31
2023-02-24T18:48:52.348Z,97491.78
2023-02-24T18:51:23.546Z,97506.97
2023-02-24T18:53:52.786Z,97507.34
2023-02-24T18:56:25.206Z,97493.84
2023-02-24T18:58:57.732Z,97509.56
2023-02-24T19:01:38.648Z,97506.44
2023-02-24T19:04:08.974Z,97519.16
2023-02-24T19:06:37.096Z,97517.25
2023-02-24T19:09:12.048Z,97513.06
2023-02-24T19:11:42.065Z,97514.81
2023-02-24T19:14:13.974Z,97503.22
2023-02-24T19:16:42.404Z,97504.72
2023-02-24T19:19:14.419Z,97502.53
2023-02-24T19:21:45.499Z,97504.25
2023-02-24T19:24:14.068Z,97505.03
2023-02-24T19:26:43.797Z,97503.88
2023-02-24T19:29:11.865Z,97506.84
2023-02-24T19:31:39.994Z,97498.75
2023-02-24T19:34:13.993Z,97504.72
2023-02-24T19:36:41.927Z,97506.09
2023-02-24T19:39:14.309Z,97518.84
2023-02-24T19:41:42.149Z,97505.69
2023-02-24T19:44:10.366Z,97503.28
2023-02-24T19:46:39.321Z,97491.44
2023-02-24T19:49:07.064Z,97500.19
2023-02-24T19:51:34.520Z,97507.16
2023-02-24T19:54:05.960Z,97517.22
2023-02-24T19:56:36.952Z,97516.38
2023-02-24T19:59:08.006Z,97503.78
2023-02-24T20:01:38.156Z,97497.75
2023-02-24T20:04:07.002Z,97489.59
2023-02-24T20:06:43.428Z,97491.53
2023-02-24T20:09:17.285Z,97494.41
2023-02-24T20:11:46.152Z,97489.38
2023-02-24T20:14:16.954Z,97497.69
2023-02-24T20:16:45.485Z,97501.13
2023-02-24T20:19:15.350Z,97506.59
2023-02-24T20:21:43.288Z,97514.44
2023-02-24T20:24:15.596Z,97510.50
2023-02-24T20:26:47.451Z,97513.44
2023-02-24T20:29:18.761Z,97523.81
2023-02-24T20:31:46.413Z,97519.38
2023-02-24T20:34:16.527Z,97519.94
2023-02-24T20:36:44.257Z,97518.75
2023-02-24T20:39:14.618Z,97506.53
2023-02-24T20:41:42.254Z,97513.47
2023-02-24T20:44:11.499Z,97520.44
2023-02-24T20:46:38.828Z,97519.63
2023-02-24T20:49:11.989Z,97519.03
2023-02-24T20:51:39.207Z,97532.13
2023-02-24T20:54:11.041Z,97536.59
2023-02-24T20:56:42.551Z,97539.94
2023-02-24T20:59:19.221Z,97533.81
2023-02-24T21:01:49.108Z,97538.50
2023-02-24T21:04:20.935Z,97545.84
2023-02-24T21:06:54.379Z,97545.84
2023-02-24T21:09:21.745Z,97537.22
2023-02-24T21:11:49.355Z,97536.50
2023-02-24T21:14:17.607Z,97542.53
2023-02-24T21:16:49.592Z,97535.56
2023-02-24T21:19:17.777Z,97542.28
2023-02-24T21:21:45.049Z,97534.78
2023-02-24T21:24:12.683Z,97546.69
2023-02-24T21:26:40.175Z,97553.13
2023-02-24T21:29:07.733Z,97577.22
2023-02-24T21:31:35.137Z,97571.44
2023-02-24T21:34:02.508Z,97584.94
2023-02-24T21:36:30.637Z,97579.41
2023-02-24T21:38:57.878Z,97590.53
2023-02-24T21:41:25.232Z,97594.53
2023-02-24T21:43:55.246Z,97597.59
2023-02-24T21:46:27.999Z,97605.00
2023-02-24T21:49:00.321Z,97613.72
2023-02-24T21:51:29.174Z,97621.31
2023-02-24T21:53:58.184Z,97612.69
2023-02-24T21:56:29.711Z,97624.56
2023-02-24T21:59:02.294Z,97637.50
2023-02-24T22:01:38.059Z,97645.88
2023-02-24T22:04:11.203Z,97641.63
2023-02-24T22:06:40.684Z,97644.31
2023-02-24T22:09:11.824Z,97653.72
2023-02-24T22:11:41.660Z,97646.41
2023-02-24T22:14:12.351Z,97649.22
2023-02-24T22:16:42.121Z,97659.66
2023-02-24T22:19:10.364Z,97657.81
2023-02-24T22:21:39.568Z,97664.63
2023-02-24T22:24:07.276Z,97660.31
2023-02-24T22:26:34.774Z,97655.25
2023-02-24T22:29:02.499Z,97661.06
2023-02-24T22:31:33.351Z,97652.53
2023-02-24T22:34:01.830Z,97663.00
2023-02-24T22:36:36.789Z,97663.22
2023-02-24T22:39:06.593Z,97660.34
2023-02-24T22:41:35.604Z,97662.72
2023-02-24T22:44:05.626Z,97653.72
2023-02-24T22:46:38.883Z,97647.88
2023-02-24T22:49:07.225Z,97667.63
2023-02-24T22:51:34.651Z,97651.66
2023-02-24T22:54:02.428Z,97665.34
2023-02-24T22:56:31.175Z,97661.09
2023-02-24T22:59:00.738Z,97665.44
2023-02-24T23:01:36.065Z,97666.25
2023-02-24T23:04:08.716Z,97661.03
2023-02-24T23:06:36.514Z,97667.06
2023-02-24T23:09:06.156Z,97675.69
2023-02-24T23:11:41.557Z,97668.28
2023-02-24T23:14:16.396Z,97657.84
2023-02-24T23:16:47.289Z,97669.00
2023-02-24T23:19:20.835Z,97660.13
2023-02-24T23:21:53.032Z,97658.75
2023-02-24T23:24:23.941Z,97672.53
2023-02-24T23:26:57.205Z,97670.59
2023-02-24T23:29:26.907Z,97673.81
2023-02-24T23:31:54.264Z,97681.09
2023-02-24T23:34:21.604Z,97681.78
2023-02-24T23:36:49.151Z,97677.91
2023-02-24T23:39:22.846Z,97671.22
2023-02-24T23:41:56.476Z,97682.69
2023-02-24T23:44:25.037Z,97675.50
2023-02-24T23:46:52.363Z,97684.00
2023-02-24T23:49:19.759Z,97681.97
2023-02-24T23:51:49.450Z,97692.53
2023-02-24T23:54:18.466Z,97688.09
2023-02-24T23:56:46.630Z,97694.81
2023-02-24T23:59:14.746Z,97692.69
